METAR Data
IDs: Format: Raw Decoded Include TAF

Data at: 0206 UTC 19 Oct 2021

KCLL 190153Z 13006KT 10SM CLR 19/11 A3006 RMK AO2 SLP178 T01890106